Time;durP1;ratioP1;P1;durP2;ratioP2;P2;SDS_P1;SDS_P2;PMS_P1;PMS_P2;Temp;Humidity;BMP_temperature;BMP_pressure;BME280_temperature;BME280_humidity;BME280_pressure;Samples;Min_cycle;Max_cycle;Signal;HPM_P1;HPM_P2
2023/03/05 00:02:05;;;;;;;28.13;13.37;;;;;;;0.10;100.00;96341.53;5080438;28;20448;-74
2023/03/05 00:04:32;;;;;;;19.67;10.27;;;;;;;-0.04;100.00;96328.25;5086818;28;20933;-74
2023/03/05 00:06:59;;;;;;;27.80;13.00;;;;;;;-0.11;100.00;96314.75;5076615;28;20437;-74
2023/03/05 00:09:26;;;;;;;18.47;11.80;;;;;;;-0.31;100.00;96282.50;5065947;28;20466;-74
2023/03/05 00:11:52;;;;;;;24.97;13.60;;;;;;;-0.15;100.00;96314.47;5061591;28;20977;-74
2023/03/05 00:14:19;;;;;;;20.33;11.87;;;;;;;-0.56;100.00;96253.09;5072947;28;20821;-74
2023/03/05 00:16:46;;;;;;;19.20;10.63;;;;;;;-0.28;100.00;96298.59;5069765;28;20518;-74
2023/03/05 00:19:12;;;;;;;18.63;12.47;;;;;;;-0.08;100.00;96327.22;5082500;28;20455;-74
2023/03/05 00:21:40;;;;;;;21.93;13.17;;;;;;;-0.10;100.00;96327.50;5079399;28;20540;-74
2023/03/05 00:24:13;;;;;;;21.03;13.27;;;;;;;-0.18;100.00;96312.41;5067519;28;20440;-74
2023/03/05 00:26:39;;;;;;;23.30;13.50;;;;;;;-0.37;100.00;96286.13;5069733;28;20845;-75
2023/03/05 00:29:07;;;;;;;25.47;13.30;;;;;;;-0.18;100.00;96312.41;5082217;28;20447;-74
2023/03/05 00:31:36;;;;;;;21.60;13.60;;;;;;;-0.13;100.00;96324.63;5062483;28;20512;-74
2023/03/05 00:34:10;;;;;;;21.07;11.30;;;;;;;-0.15;100.00;96308.50;5065923;28;20470;-74
2023/03/05 00:36:46;;;;;;;20.83;13.53;;;;;;;-0.12;100.00;96313.19;5072523;28;20855;-74
2023/03/05 00:39:14;;;;;;;22.40;12.33;;;;;;;-0.15;100.00;96311.88;5085430;28;20423;-74
2023/03/05 00:41:41;;;;;;;28.87;11.60;;;;;;;-0.21;100.00;96296.56;5062460;28;20482;-74
2023/03/05 00:44:08;;;;;;;22.83;12.57;;;;;;;-0.23;100.00;96289.03;5079295;28;20432;-74
2023/03/05 00:46:35;;;;;;;23.80;12.30;;;;;;;-0.17;100.00;96302.78;5069051;28;20436;-74
2023/03/05 00:49:02;;;;;;;28.10;14.80;;;;;;;-0.30;100.00;96278.09;5085648;28;20489;-74
2023/03/05 00:51:29;;;;;;;21.10;12.30;;;;;;;-0.16;100.00;96293.94;5062749;28;20509;-74
2023/03/05 00:53:55;;;;;;;23.90;14.70;;;;;;;-0.32;100.00;96269.78;5078636;28;20483;-74
2023/03/05 00:56:22;;;;;;;23.93;13.40;;;;;;;-0.15;100.00;96287.72;5069175;28;20436;-74
2023/03/05 00:58:49;;;;;;;24.60;13.83;;;;;;;-0.16;100.00;96299.94;5085942;28;20423;-74
2023/03/05 01:01:16;;;;;;;21.07;14.80;;;;;;;-0.37;100.00;96267.97;5059914;28;20479;-74
2023/03/05 01:03:43;;;;;;;19.20;12.43;;;;;;;-0.30;100.00;96275.50;5072289;28;20478;-74
2023/03/05 01:06:12;;;;;;;26.00;14.07;;;;;;;-0.18;100.00;96288.25;5064886;28;20461;-75
2023/03/05 01:08:38;;;;;;;22.73;12.60;;;;;;;-0.33;100.00;96268.22;5066000;28;20584;-74
2023/03/05 01:11:06;;;;;;;19.80;12.20;;;;;;;-0.45;100.00;96245.09;5071674;28;20806;-74
2023/03/05 01:13:33;;;;;;;32.00;13.17;;;;;;;-0.37;100.00;96256.78;5085288;28;20431;-74
2023/03/05 01:16:00;;;;;;;18.00;12.17;;;;;;;-0.31;100.00;96261.72;5080294;28;20438;-74
2023/03/05 01:18:27;;;;;;;23.93;14.33;;;;;;;-0.24;100.00;96265.91;5078360;28;20438;-74
2023/03/05 01:20:53;;;;;;;21.63;12.73;;;;;;;-0.35;100.00;96244.31;5083117;28;20961;-74
2023/03/05 01:23:20;;;;;;;21.50;12.73;;;;;;;-0.61;100.00;96207.16;5060391;28;20894;-74
2023/03/05 01:25:58;;;;;;;22.90;11.73;;;;;;;-0.45;100.00;96223.53;5082996;28;20426;-74
2023/03/05 01:28:25;;;;;;;27.27;14.50;;;;;;;-0.23;100.00;96257.84;5068411;28;20543;-74
2023/03/05 01:30:52;;;;;;;23.47;14.90;;;;;;;-0.40;100.00;96221.75;5071425;28;20486;-74
2023/03/05 01:33:19;;;;;;;29.13;14.83;;;;;;;-0.24;100.00;96230.31;5075465;28;20514;-75
2023/03/05 01:35:47;;;;;;;22.00;14.50;;;;;;;-0.38;100.00;96208.50;5080914;28;20444;-74
2023/03/05 01:38:14;;;;;;;20.47;13.00;;;;;;;-0.19;100.00;96248.50;5057830;28;20966;-74
2023/03/05 01:40:44;;;;;;;26.30;15.80;;;;;;;-0.37;100.00;96213.44;5065488;28;20435;-74
2023/03/05 01:43:11;;;;;;;23.30;14.20;;;;;;;-0.08;100.00;96252.66;5061168;28;20442;-74
2023/03/05 01:45:58;;;;;;;25.37;13.77;;;;;;;-0.16;100.00;96240.16;5080010;28;20420;-74
2023/03/05 01:48:25;;;;;;;25.00;12.97;;;;;;;-0.13;100.00;96244.09;5066498;28;20466;-74
2023/03/05 01:50:52;;;;;;;24.10;14.17;;;;;;;-0.08;100.00;96242.25;5060838;28;20520;-74
2023/03/05 01:53:19;;;;;;;29.93;12.10;;;;;;;-0.16;100.00;96237.56;5091240;28;20430;-74
2023/03/05 01:55:46;;;;;;;26.87;14.83;;;;;;;-0.25;100.00;96225.38;5077565;28;20514;-74
2023/03/05 01:58:15;;;;;;;26.40;13.30;;;;;;;-0.09;100.00;96245.13;5082761;28;20771;-74
2023/03/05 02:00:49;;;;;;;20.00;13.00;;;;;;;-0.10;100.00;96243.56;5084566;28;20489;-74
2023/03/05 02:03:16;;;;;;;25.50;14.17;;;;;;;-0.20;100.00;96220.19;5072156;28;20412;-75
2023/03/05 02:05:43;;;;;;;26.50;14.97;;;;;;;-0.08;100.00;96236.28;5075056;28;20429;-75
2023/03/05 02:08:15;;;;;;;24.53;13.40;;;;;;;-0.05;100.00;96244.34;5080772;28;20509;-74
2023/03/05 02:10:55;;;;;;;33.27;15.00;;;;;;;-0.12;100.00;96223.03;5072304;28;20424;-74
2023/03/05 02:13:28;;;;;;;22.43;14.37;;;;;;;-0.07;100.00;96235.25;5084278;28;20415;-74
2023/03/05 02:15:57;;;;;;;23.23;13.17;;;;;;;-0.05;100.00;96230.56;5065671;28;20471;-74
2023/03/05 02:18:25;;;;;;;28.97;15.67;;;;;;;-0.16;100.00;96210.81;5076084;28;20424;-74
2023/03/05 02:20:58;;;;;;;24.30;14.20;;;;;;;-0.24;100.00;96193.16;5070529;28;20955;-74
2023/03/05 02:23:28;;;;;;;20.37;13.20;;;;;;;-0.05;100.00;96220.16;5085509;28;20415;-74
2023/03/05 02:25:55;;;;;;;23.87;13.90;;;;;;;-0.30;100.00;96187.97;5080713;28;20419;-75
2023/03/05 02:28:23;;;;;;;21.43;13.70;;;;;;;-0.33;100.00;96183.28;5077077;28;20459;-74
2023/03/05 02:30:50;;;;;;;31.47;15.90;;;;;;;-0.28;100.00;96185.09;5080232;28;20440;-74
2023/03/05 02:33:17;;;;;;;25.03;14.40;;;;;;;-0.56;100.00;96142.25;5084061;28;20531;-74
2023/03/05 02:35:45;;;;;;;28.97;15.63;;;;;;;-0.11;100.00;96211.63;5081275;28;20449;-74
2023/03/05 02:38:13;;;;;;;22.33;12.20;;;;;;;-0.12;100.00;96210.06;5077216;28;20439;-74
2023/03/05 02:40:41;;;;;;;24.80;15.30;;;;;;;-0.32;100.00;96179.66;5079382;28;20433;-74
2023/03/05 02:43:08;;;;;;;20.83;12.60;;;;;;;-0.16;100.00;96205.63;5067421;28;20550;-74
2023/03/05 02:45:35;;;;;;;23.60;13.40;;;;;;;-0.33;100.00;96164.34;5082348;28;20467;-74
2023/03/05 02:48:03;;;;;;;24.13;12.30;;;;;;;-0.28;100.00;96172.09;5078416;28;20428;-74
2023/03/05 02:50:31;;;;;;;19.20;12.43;;;;;;;-0.18;100.00;96198.09;5078225;28;20489;-74
2023/03/05 02:52:57;;;;;;;26.00;12.47;;;;;;;-0.17;100.00;96204.06;5083977;28;20513;-75
2023/03/05 02:55:24;;;;;;;17.77;11.83;;;;;;;-0.13;100.00;96181.75;5066488;28;20943;-75
2023/03/05 02:57:51;;;;;;;22.13;11.90;;;;;;;-0.11;100.00;96190.06;5060548;28;20851;-74
2023/03/05 03:00:18;;;;;;;14.53;9.50;;;;;;;-0.28;100.00;96177.31;5077208;28;20506;-74
2023/03/05 03:02:45;;;;;;;15.73;10.07;;;;;;;0.01;100.00;96208.75;5066936;28;20514;-74
2023/03/05 03:05:11;;;;;;;18.33;10.90;;;;;;;-0.29;100.00;96165.38;5085008;28;20445;-74
2023/03/05 03:07:38;;;;;;;16.47;8.10;;;;;;;-0.45;100.00;96148.22;5085143;28;20789;-74
2023/03/05 03:10:05;;;;;;;10.90;8.10;;;;;;;-0.61;100.00;96137.06;5071360;28;20456;-74
2023/03/05 03:12:37;;;;;;;13.70;7.97;;;;;;;-0.22;100.00;96191.88;5063846;28;20459;-74
2023/03/05 03:15:04;;;;;;;11.10;7.67;;;;;;;-0.35;100.00;96158.63;5077030;28;20417;-75
2023/03/05 03:17:33;;;;;;;9.20;7.60;;;;;;;-0.45;100.00;96146.41;5085594;28;20412;-74
2023/03/05 03:20:00;;;;;;;12.67;6.33;;;;;;;-0.12;100.00;96197.06;5075528;28;20839;-74
2023/03/05 03:22:28;;;;;;;13.53;6.67;;;;;;;-0.32;100.00;96173.69;5083428;28;20542;-74
2023/03/05 03:24:55;;;;;;;11.13;4.80;;;;;;;-0.09;100.00;96190.56;5080496;28;20932;-75
2023/03/05 03:27:22;;;;;;;10.33;7.33;;;;;;;-0.39;100.00;96168.75;5085630;28;20435;-75
2023/03/05 03:29:48;;;;;;;7.53;4.87;;;;;;;-0.35;100.00;96161.22;5076689;28;20462;-76
2023/03/05 03:32:15;;;;;;;9.80;5.43;;;;;;;-0.41;100.00;96157.84;5086559;28;20456;-74
2023/03/05 03:34:43;;;;;;;8.07;4.23;;;;;;;-0.53;100.00;96148.78;5070504;28;20461;-74
2023/03/05 03:37:10;;;;;;;9.97;4.10;;;;;;;-0.77;100.00;96120.72;5083959;28;20425;-74
2023/03/05 03:39:37;;;;;;;5.60;4.03;;;;;;;-0.35;100.00;96169.00;5080440;28;20950;-74
2023/03/05 03:42:04;;;;;;;8.90;4.03;;;;;;;-0.48;100.00;96159.91;5085040;28;20884;-75
2023/03/05 03:44:31;;;;;;;4.90;3.63;;;;;;;-0.42;100.00;96171.84;5087539;28;20469;-74
2023/03/05 03:46:57;;;;;;;5.03;3.43;;;;;;;-0.41;100.00;96150.03;5073630;28;20448;-74
2023/03/05 03:49:27;;;;;;;7.70;3.60;;;;;;;-0.25;100.00;96186.41;5077591;28;20892;-74
2023/03/05 03:51:54;;;;;;;5.87;3.33;;;;;;;-0.57;100.00;96143.28;5094922;28;20469;-74
2023/03/05 03:54:21;;;;;;;4.37;3.97;;;;;;;-0.45;100.00;96161.22;5078273;28;20482;-74
2023/03/05 03:56:48;;;;;;;4.00;3.03;;;;;;;-0.48;100.00;96185.09;5073203;28;20454;-74
2023/03/05 03:59:15;;;;;;;6.83;3.27;;;;;;;-0.50;100.00;96174.97;5086781;28;20531;-74
2023/03/05 04:01:41;;;;;;;3.97;2.80;;;;;;;-0.64;100.00;96161.75;5073107;28;21060;-74
2023/03/05 04:04:10;;;;;;;8.33;3.57;;;;;;;-0.32;100.00;96181.47;5076434;28;20492;-74
2023/03/05 04:06:37;;;;;;;2.63;2.37;;;;;;;-0.48;100.00;96146.94;5082890;28;20823;-74
2023/03/05 04:09:06;;;;;;;5.40;2.97;;;;;;;-0.56;100.00;96150.03;5087967;28;20798;-74
2023/03/05 04:11:34;;;;;;;7.97;3.23;;;;;;;-0.74;100.00;96127.19;5073012;28;20459;-74
2023/03/05 04:14:02;;;;;;;9.10;2.90;;;;;;;-0.30;100.00;96184.59;5087837;28;20432;-74
2023/03/05 04:16:29;;;;;;;3.90;3.20;;;;;;;-0.24;100.00;96178.38;5085207;28;20439;-74
2023/03/05 04:18:55;;;;;;;7.83;2.80;;;;;;;-0.68;100.00;96142.50;5068631;28;20507;-74
2023/03/05 04:21:22;;;;;;;3.63;2.37;;;;;;;-0.45;100.00;96162.00;5080717;28;20475;-74
2023/03/05 04:23:49;;;;;;;5.10;2.33;;;;;;;-0.57;100.00;96132.13;5086552;28;20435;-74
2023/03/05 04:26:16;;;;;;;3.57;2.77;;;;;;;-0.49;100.00;96144.59;5086064;28;20426;-74
2023/03/05 04:28:42;;;;;;;5.17;2.70;;;;;;;-0.39;100.00;96139.41;5062310;28;20478;-75
2023/03/05 04:31:09;;;;;;;4.73;2.40;;;;;;;-0.51;100.00;96138.91;5064408;28;20466;-74
2023/03/05 04:33:36;;;;;;;3.90;3.07;;;;;;;-0.35;100.00;96159.41;5086074;28;20554;-74
2023/03/05 04:36:03;;;;;;;9.13;3.10;;;;;;;-0.33;100.00;96148.75;5072629;28;20449;-74
2023/03/05 04:38:29;;;;;;;6.47;3.10;;;;;;;-0.64;100.00;96111.63;5077682;28;20430;-74
2023/03/05 04:40:56;;;;;;;4.07;2.53;;;;;;;-0.37;100.00;96158.88;5080614;28;20432;-74
2023/03/05 04:43:22;;;;;;;3.00;2.43;;;;;;;-0.48;100.00;96143.56;5069362;28;20529;-74
2023/03/05 04:45:49;;;;;;;4.03;3.10;;;;;;;-0.54;100.00;96147.97;5068021;28;20519;-74
2023/03/05 04:48:16;;;;;;;4.30;2.40;;;;;;;-0.18;100.00;96166.91;5079138;28;20514;-75
2023/03/05 04:50:42;;;;;;;3.83;2.50;;;;;;;-0.42;100.00;96132.13;5080175;28;20833;-74
2023/03/05 04:53:09;;;;;;;3.83;2.20;;;;;;;-0.47;100.00;96135.50;5085851;28;20547;-73
2023/03/05 04:55:35;;;;;;;5.60;3.40;;;;;;;-0.44;100.00;96142.00;5072143;28;20444;-74
2023/03/05 04:58:02;;;;;;;3.30;2.37;;;;;;;-0.31;100.00;96144.84;5078117;28;20496;-74
2023/03/05 05:00:29;;;;;;;3.47;3.17;;;;;;;-0.57;100.00;96112.16;5079489;28;20970;-74
2023/03/05 05:02:56;;;;;;;22.27;3.30;;;;;;;-0.11;100.00;96171.88;5085317;28;20456;-74
2023/03/05 05:05:26;;;;;;;7.93;3.10;;;;;;;-0.33;100.00;96172.13;5086414;28;20428;-74
2023/03/05 05:07:55;;;;;;;5.03;3.00;;;;;;;-0.53;100.00;96138.38;5065849;28;20977;-74
2023/03/05 05:10:23;;;;;;;2.93;2.63;;;;;;;-0.60;100.00;96129.03;5077813;28;20495;-74
2023/03/05 05:12:53;;;;;;;4.70;3.10;;;;;;;-0.38;100.00;96139.16;5081348;28;21046;-74
2023/03/05 05:15:20;;;;;;;4.13;2.93;;;;;;;-0.33;100.00;96148.75;5078596;28;20554;-74
2023/03/05 05:17:47;;;;;;;2.73;2.40;;;;;;;-0.42;100.00;96153.69;5082590;28;20523;-73
2023/03/05 05:20:15;;;;;;;4.00;2.60;;;;;;;-0.51;100.00;96134.50;5086544;28;20427;-74
2023/03/05 05:22:42;;;;;;;5.50;4.23;;;;;;;-0.19;100.00;96162.75;5081658;28;21027;-73
2023/03/05 05:25:10;;;;;;;6.37;2.57;;;;;;;-0.35;100.00;96159.41;5079769;28;20427;-74
2023/03/05 05:27:38;;;;;;;6.50;2.40;;;;;;;-0.40;100.00;96156.00;5081393;28;20432;-74
2023/03/05 05:30:06;;;;;;;3.67;2.73;;;;;;;-0.28;100.00;96155.75;5085357;28;20554;-74
2023/03/05 05:32:33;;;;;;;3.90;2.13;;;;;;;-0.40;100.00;96120.47;5066440;28;20504;-74
2023/03/05 05:35:00;;;;;;;4.60;2.60;;;;;;;-0.99;100.00;96063.88;5078005;28;20972;-76
2023/03/05 05:37:28;;;;;;;6.43;2.80;;;;;;;-0.60;100.00;96139.41;5079646;28;20435;-74
2023/03/05 05:39:55;;;;;;;2.30;2.10;;;;;;;-0.59;100.00;96147.97;5084416;28;20952;-74
2023/03/05 05:42:24;;;;;;;3.20;1.77;;;;;;;-0.54;100.00;96147.19;5072591;28;20825;-74
2023/03/05 05:44:50;;;;;;;3.40;1.80;;;;;;;-0.41;100.00;96146.66;5060538;28;21291;-74
2023/03/05 05:47:18;;;;;;;4.60;2.50;;;;;;;-0.53;100.00;96128.00;5078727;28;20527;-74
2023/03/05 05:49:44;;;;;;;4.13;2.07;;;;;;;-0.68;100.00;96110.59;5085818;28;20456;-74
2023/03/05 05:52:12;;;;;;;2.93;1.90;;;;;;;-0.49;100.00;96150.56;5067249;28;20472;-73
2023/03/05 05:54:38;;;;;;;5.63;2.43;;;;;;;-0.57;100.00;96119.16;5077835;28;20435;-74
2023/03/05 05:57:06;;;;;;;2.03;1.70;;;;;;;-0.51;100.00;96138.91;5078913;28;20420;-74
2023/03/05 05:59:32;;;;;;;4.40;2.40;;;;;;;-0.29;100.00;96157.56;5064573;28;20535;-73
2023/03/05 06:01:59;;;;;;;9.93;4.60;;;;;;;-0.34;100.00;96132.38;5077366;28;20452;-74
2023/03/05 06:04:26;;;;;;;8.37;4.10;;;;;;;-0.43;100.00;96128.75;5067141;28;20432;-74
2023/03/05 06:06:52;;;;;;;4.70;2.80;;;;;;;-0.31;100.00;96133.69;5067827;28;20431;-74
2023/03/05 06:09:19;;;;;;;5.07;3.10;;;;;;;0.04;100.00;96163.25;5054240;28;20456;-74
2023/03/05 06:11:46;;;;;;;2.90;2.40;;;;;;;0.21;100.00;96176.75;5070738;28;20458;-74
2023/03/05 06:14:13;;;;;;;4.70;2.67;;;;;;;0.19;100.00;96165.81;5084056;28;20877;-75
2023/03/05 06:16:41;;;;;;;6.03;3.50;;;;;;;0.10;100.00;96172.59;5067664;28;20471;-74
2023/03/05 06:19:10;;;;;;;7.60;3.50;;;;;;;0.06;100.00;96164.56;5077782;28;20874;-74
2023/03/05 06:21:37;;;;;;;3.93;2.73;;;;;;;-0.21;100.00;96136.28;5078513;28;20489;-75
2023/03/05 06:24:04;;;;;;;2.73;2.33;;;;;;;-0.48;100.00;96126.16;5083718;28;20442;-74
2023/03/05 06:26:31;;;;;;;4.03;2.83;;;;;;;-0.22;100.00;96158.09;5084292;28;20538;-75
2023/03/05 06:28:58;;;;;;;3.80;2.50;;;;;;;-0.66;100.00;96091.13;5061673;28;20436;-76
2023/03/05 06:31:27;;;;;;;5.10;2.20;;;;;;;-0.04;100.00;96172.34;5077255;28;20463;-74
2023/03/05 06:33:56;;;;;;;2.20;2.10;;;;;;;-0.15;100.00;96168.22;5082837;28;20858;-74
2023/03/05 06:36:24;;;;;;;4.13;2.13;;;;;;;-0.09;100.00;96173.16;5084254;28;20471;-73
2023/03/05 06:38:52;;;;;;;2.80;2.00;;;;;;;-0.39;100.00;96132.41;5080688;28;20459;-74
2023/03/05 06:41:27;;;;;;;2.77;2.30;;;;;;;-0.05;100.00;96176.00;5060619;28;20547;-74
2023/03/05 06:43:55;;;;;;;2.27;1.97;;;;;;;-0.34;100.00;96136.81;5081620;28;20420;-74
2023/03/05 06:46:23;;;;;;;2.57;2.17;;;;;;;-0.15;100.00;96178.59;5067445;28;20534;-74
2023/03/05 06:48:51;;;;;;;2.53;2.33;;;;;;;-0.09;100.00;96180.16;5081438;28;20478;-74
2023/03/05 06:51:23;;;;;;;3.00;2.80;;;;;;;-0.12;100.00;96170.31;5077957;28;21132;-74
2023/03/05 06:53:52;;;;;;;2.37;2.07;;;;;;;-0.15;100.00;96168.22;5066122;28;20446;-74
2023/03/05 06:56:19;;;;;;;2.43;2.23;;;;;;;-0.10;100.00;96173.41;5089242;28;20428;-74
2023/03/05 06:58:48;;;;;;;3.80;2.97;;;;;;;-0.15;100.00;96166.38;5086862;28;20520;-74
2023/03/05 07:01:15;;;;;;;15.90;10.70;;;;;;;-0.23;100.00;96140.19;5064301;28;20463;-74
2023/03/05 07:03:42;;;;;;;108.03;66.67;;;;;;;-0.09;100.00;96173.16;5083165;28;20443;-74
2023/03/05 07:06:12;;;;;;;40.40;24.60;;;;;;;-0.27;100.00;96142.50;5087948;28;20443;-74
2023/03/05 07:08:39;;;;;;;22.00;15.90;;;;;;;0.02;100.00;96179.13;5087391;28;20435;-74
2023/03/05 07:11:10;;;;;;;12.10;8.67;;;;;;;-0.20;100.00;96156.00;5075459;28;20506;-74
2023/03/05 07:13:37;;;;;;;7.80;3.67;;;;;;;-0.39;100.00;96122.03;5087991;28;20808;-74
2023/03/05 07:16:09;;;;;;;4.70;4.23;;;;;;;-0.04;100.00;96180.94;5083247;28;20463;-74
2023/03/05 07:18:36;;;;;;;2.30;2.10;;;;;;;-0.36;100.00;96154.47;5069004;28;20508;-74
2023/03/05 07:21:07;;;;;;;3.57;3.27;;;;;;;-0.15;100.00;96176.00;5084452;28;20531;-74
2023/03/05 07:23:35;;;;;;;6.93;3.83;;;;;;;-0.46;100.00;96146.69;5074115;28;20440;-76
2023/03/05 07:26:04;;;;;;;4.30;3.90;;;;;;;-0.16;100.00;96167.44;5085029;28;20427;-74
2023/03/05 07:28:31;;;;;;;9.87;6.13;;;;;;;-0.10;100.00;96168.22;5080348;28;20443;-74
2023/03/05 07:31:10;;;;;;;22.73;15.10;;;;;;;-0.23;100.00;96169.53;5083954;28;20559;-74
2023/03/05 07:33:37;;;;;;;116.00;76.57;;;;;;;-0.62;100.00;96125.13;5088634;28;20420;-74
2023/03/05 07:36:07;;;;;;;49.13;36.73;;;;;;;-0.56;100.00;96146.66;5088245;28;20434;-75
2023/03/05 07:38:33;;;;;;;4.63;4.23;;;;;;;-0.42;100.00;96134.72;5069283;28;20428;-74
2023/03/05 07:41:05;;;;;;;5.90;5.43;;;;;;;-0.34;100.00;96150.56;5080051;28;20815;-74
2023/03/05 07:43:31;;;;;;;3.77;3.37;;;;;;;-0.68;100.00;96095.00;5069299;28;20439;-74
2023/03/05 07:45:58;;;;;;;4.30;1.87;;;;;;;-0.22;100.00;96160.69;5074919;28;20424;-75
2023/03/05 07:48:25;;;;;;;1.87;1.77;;;;;;;-0.37;100.00;96142.53;5065101;28;20435;-74
2023/03/05 07:51:00;;;;;;;4.07;3.30;;;;;;;-0.25;100.00;96137.06;5081238;28;20455;-74
2023/03/05 07:53:27;;;;;;;3.30;1.83;;;;;;;-0.46;100.00;96131.09;5067320;28;20440;-74
2023/03/05 07:55:53;;;;;;;2.40;1.80;;;;;;;-0.42;100.00;96134.72;5086813;28;20446;-74
2023/03/05 07:58:20;;;;;;;4.40;4.00;;;;;;;-0.11;100.00;96153.69;5083124;28;20430;-74
2023/03/05 08:00:47;;;;;;;4.43;2.27;;;;;;;-0.09;100.00;96156.78;5076697;28;20425;-74
2023/03/05 08:03:14;;;;;;;5.47;3.10;;;;;;;0.05;100.00;96163.00;5082676;28;20532;-74
2023/03/05 08:05:41;;;;;;;5.07;4.43;;;;;;;0.11;100.00;96158.56;5079681;28;20441;-74
2023/03/05 08:08:08;;;;;;;4.20;1.90;;;;;;;0.09;100.00;96161.41;5083239;28;20455;-74
2023/03/05 08:10:36;;;;;;;3.30;2.23;;;;;;;-0.09;100.00;96149.78;5086175;28;20488;-74
2023/03/05 08:13:05;;;;;;;5.00;4.17;;;;;;;0.04;100.00;96156.25;5078404;28;20956;-74
2023/03/05 08:15:32;;;;;;;1.90;1.80;;;;;;;-0.26;100.00;96105.13;5084687;28;20436;-74
2023/03/05 08:17:59;;;;;;;11.03;8.80;;;;;;;-0.12;100.00;96124.31;5084826;28;20437;-74
2023/03/05 08:20:25;;;;;;;3.90;2.10;;;;;;;-0.09;100.00;96139.38;5062917;28;20427;-74
2023/03/05 08:22:52;;;;;;;7.83;3.07;;;;;;;-0.12;100.00;96126.13;5082482;28;20471;-75
2023/03/05 08:25:19;;;;;;;9.97;7.50;;;;;;;0.13;100.00;96140.88;5072747;28;20435;-74
2023/03/05 08:27:46;;;;;;;5.53;5.03;;;;;;;0.03;100.00;96118.31;5085966;28;20459;-74
2023/03/05 08:30:17;;;;;;;8.37;7.23;;;;;;;-0.11;100.00;96086.91;5079387;28;20459;-75
2023/03/05 08:32:44;;;;;;;20.87;14.33;;;;;;;-0.06;100.00;96115.47;5080127;28;20837;-74
2023/03/05 08:35:10;;;;;;;11.13;6.30;;;;;;;0.11;100.00;96127.38;5086126;28;20458;-75
2023/03/05 08:37:37;;;;;;;3.37;2.90;;;;;;;0.02;100.00;96121.19;5074099;28;20424;-75
2023/03/05 08:40:05;;;;;;;2.30;2.10;;;;;;;-0.10;100.00;96124.84;5078736;28;20932;-75
2023/03/05 08:42:31;;;;;;;2.53;1.70;;;;;;;0.06;100.00;96153.38;5080909;28;20440;-74
2023/03/05 08:44:58;;;;;;;2.23;1.60;;;;;;;-0.13;100.00;96120.16;5085907;28;20534;-75
2023/03/05 08:47:26;;;;;;;6.60;1.97;;;;;;;-0.20;100.00;96117.06;5086987;28;20420;-76
2023/03/05 08:49:54;;;;;;;4.90;1.97;;;;;;;-0.07;100.00;96136.50;5086078;28;20452;-75
2023/03/05 08:52:21;;;;;;;1.97;1.50;;;;;;;-0.18;100.00;96119.38;5085876;28;20447;-74
2023/03/05 08:54:48;;;;;;;4.60;2.00;;;;;;;0.13;100.00;96143.47;5059099;28;20468;-75
2023/03/05 08:57:15;;;;;;;1.73;1.50;;;;;;;-0.09;100.00;96141.19;5073906;28;20923;-75
2023/03/05 08:59:41;;;;;;;3.47;2.10;;;;;;;-0.09;100.00;96117.81;5085190;28;20432;-75
2023/03/05 09:02:11;;;;;;;2.33;1.67;;;;;;;-0.07;100.00;96118.31;5087015;28;20538;-75
2023/03/05 09:04:38;;;;;;;2.70;1.87;;;;;;;-0.06;100.00;96141.44;5079972;28;20436;-75
2023/03/05 09:07:05;;;;;;;1.90;1.80;;;;;;;-0.19;100.00;96117.81;5078440;28;20437;-75
2023/03/05 09:09:32;;;;;;;5.23;3.00;;;;;;;-0.13;100.00;96109.00;5084446;28;20494;-75
2023/03/05 09:12:00;;;;;;;2.87;1.67;;;;;;;0.09;100.00;96119.06;5073760;28;20904;-74
2023/03/05 09:14:28;;;;;;;4.90;2.80;;;;;;;0.00;100.00;96129.25;5082657;28;20428;-75
2023/03/05 09:16:56;;;;;;;2.33;2.13;;;;;;;-0.08;100.00;96099.38;5084874;28;20439;-75
2023/03/05 09:19:23;;;;;;;4.13;2.30;;;;;;;0.11;100.00;96120.34;5061176;28;20870;-75
2023/03/05 09:21:49;;;;;;;8.13;2.40;;;;;;;0.03;100.00;96133.13;5086810;28;20439;-75
2023/03/05 09:24:16;;;;;;;3.70;2.53;;;;;;;-0.12;100.00;96110.56;5080858;28;20522;-76
2023/03/05 09:26:43;;;;;;;2.53;1.80;;;;;;;0.19;100.00;96134.63;5076120;28;20450;-74
2023/03/05 09:29:09;;;;;;;2.53;1.80;;;;;;;-0.16;100.00;96083.53;5055088;28;20444;-75
2023/03/05 09:31:36;;;;;;;1.50;1.27;;;;;;;-0.36;100.00;96111.09;5086160;28;20558;-75
2023/03/05 09:34:04;;;;;;;5.73;3.60;;;;;;;-0.39;100.00;96103.84;5080670;28;20439;-74
2023/03/05 09:36:32;;;;;;;13.83;12.67;;;;;;;-0.58;100.00;96068.28;5077824;28;20523;-75
2023/03/05 09:38:58;;;;;;;2.83;2.40;;;;;;;-0.19;100.00;96104.84;5065279;28;20494;-75
2023/03/05 09:42:02;;;;;;;10.40;7.47;;;;;;;-0.10;100.00;96127.44;5072586;28;20910;-75
2023/03/05 09:44:28;;;;;;;2.50;1.60;;;;;;;-0.12;100.00;96120.94;5085201;28;20449;-75
2023/03/05 09:47:07;;;;;;;1.80;1.70;;;;;;;-0.04;100.00;96121.16;5080678;28;20459;-75
2023/03/05 09:50:00;;;;;;;2.43;1.90;;;;;;;-0.26;100.00;96094.72;5079109;28;20530;-75
2023/03/05 09:52:40;;;;;;;4.23;2.77;;;;;;;0.09;100.00;96129.47;5077938;28;20964;-75
2023/03/05 09:55:22;;;;;;;4.07;2.07;;;;;;;0.12;100.00;96113.31;5068381;28;20478;-75
2023/03/05 09:57:55;;;;;;;3.37;1.93;;;;;;;0.29;100.00;96111.22;5061253;28;20474;-75
2023/03/05 10:00:44;;;;;;;2.23;1.80;;;;;;;0.54;100.00;96111.13;5079522;28;20463;-75
2023/03/05 10:03:21;;;;;;;2.30;2.10;;;;;;;0.64;100.00;96101.69;5083370;28;20439;-75
2023/03/05 10:06:11;;;;;;;4.57;2.07;;;;;;;0.26;100.00;96067.53;5077921;28;20442;-75
2023/03/05 10:09:02;;;;;;;5.03;1.93;;;;;;;0.78;100.00;96113.84;5077922;28;20471;-75
2023/03/05 10:11:41;;;;;;;3.30;1.97;;;;;;;0.47;100.00;96076.03;5062190;28;20563;-75
2023/03/05 10:14:16;;;;;;;3.80;2.27;;;;;;;1.03;100.00;96104.31;5084418;28;20421;-75
2023/03/05 10:16:51;;;;;;;4.70;1.30;;;;;;;0.84;100.00;96099.75;5085624;28;20419;-75
2023/03/05 10:19:31;;;;;;;3.00;1.87;;;;;;;0.71;100.00;96102.97;5063606;28;20825;-75
2023/03/05 10:22:16;;;;;;;2.13;2.03;;;;;;;0.78;100.00;96095.63;5078663;28;20451;-74
2023/03/05 10:24:48;;;;;;;3.20;2.67;;;;;;;0.95;100.00;96092.69;5060703;28;20446;-75
2023/03/05 10:27:25;;;;;;;4.50;1.90;;;;;;;0.97;100.00;96089.81;5066302;28;20540;-74
2023/03/05 10:30:12;;;;;;;2.33;1.90;;;;;;;1.06;100.00;96096.75;5084152;28;20426;-75
2023/03/05 10:32:59;;;;;;;5.43;1.93;;;;;;;0.68;100.00;96094.94;5073524;28;20508;-75
2023/03/05 10:35:39;;;;;;;2.13;2.00;;;;;;;0.63;100.00;96092.34;5067058;28;20443;-74
2023/03/05 10:38:42;;;;;;;2.10;1.90;;;;;;;0.84;100.00;96086.75;5077139;28;20996;-75
2023/03/05 10:41:23;;;;;;;1.90;1.80;;;;;;;0.95;100.00;96066.66;5048706;28;20550;-74
2023/03/05 10:44:04;;;;;;;3.93;2.03;;;;;;;1.20;100.00;96076.09;5070542;28;20439;-75
2023/03/05 10:46:34;;;;;;;2.30;1.87;;;;;;;0.96;100.00;96044.00;5075915;28;20810;-75
2023/03/05 10:49:13;;;;;;;6.77;2.63;;;;;;;1.15;100.00;96073.53;5061427;28;20809;-75
2023/03/05 10:51:49;;;;;;;10.30;2.30;;;;;;;1.14;100.00;96064.94;5067363;28;20832;-74
2023/03/05 10:54:25;;;;;;;5.00;2.80;;;;;;;1.13;100.00;96045.16;5077080;28;20444;-75
2023/03/05 10:57:16;;;;;;;4.10;2.27;;;;;;;1.21;100.00;96045.66;5081416;28;20494;-75
2023/03/05 11:00:15;;;;;;;1.43;1.33;;;;;;;1.08;100.00;96060.06;5066097;28;20427;-75
2023/03/05 11:02:57;;;;;;;1.63;1.40;;;;;;;0.99;100.00;96064.28;5060532;28;20498;-75
2023/03/05 11:05:47;;;;;;;2.73;1.90;;;;;;;1.28;100.00;96059.88;5091542;28;20817;-75
2023/03/05 11:08:25;;;;;;;1.83;1.63;;;;;;;1.02;100.00;96032.50;5053746;28;20439;-75
2023/03/05 11:11:15;;;;;;;2.40;1.40;;;;;;;1.22;100.00;96058.38;5077775;28;20473;-75
2023/03/05 11:13:53;;;;;;;4.53;1.73;;;;;;;1.25;100.00;96020.59;5089210;28;20415;-75
2023/03/05 11:16:46;;;;;;;2.00;1.60;;;;;;;1.26;100.00;96045.59;5071456;28;20958;-75
2023/03/05 11:19:36;;;;;;;1.73;1.00;;;;;;;1.15;100.00;96042.28;5070198;28;20515;-75
2023/03/05 11:22:09;;;;;;;1.60;1.40;;;;;;;1.30;100.00;96034.34;5085052;28;20447;-75
2023/03/05 11:24:36;;;;;;;6.23;1.73;;;;;;;1.13;100.00;96007.94;5070205;28;21017;-75
2023/03/05 11:27:21;;;;;;;2.53;1.20;;;;;;;1.25;100.00;96020.59;5091046;28;21098;-75
2023/03/05 11:29:49;;;;;;;4.40;1.33;;;;;;;1.10;100.00;96024.13;5074998;28;20442;-75
2023/03/05 11:32:24;;;;;;;4.63;2.10;;;;;;;1.18;100.00;95997.47;5071319;28;20554;-75
2023/03/05 11:34:51;;;;;;;3.20;1.10;;;;;;;1.19;100.00;96012.81;5074638;28;20807;-74